sensor_id;sensor_type;location;lat;lon;timestamp;temperature;humidity
36458;DHT22;22480;50.546;12.292;2023-09-19T00:00:07;15.20;99.90
36458;DHT22;22480;50.546;12.292;2023-09-19T00:02:33;15.20;99.90
36458;DHT22;22480;50.546;12.292;2023-09-19T00:04:59;15.20;99.90
36458;DHT22;22480;50.546;12.292;2023-09-19T00:07:29;15.30;99.90
36458;DHT22;22480;50.546;12.292;2023-09-19T00:09:54;15.20;99.90
36458;DHT22;22480;50.546;12.292;2023-09-19T00:12:20;15.30;99.90
36458;DHT22;22480;50.546;12.292;2023-09-19T00:14:46;15.30;99.90
36458;DHT22;22480;50.546;12.292;2023-09-19T00:17:13;15.30;99.90
36458;DHT22;22480;50.546;12.292;2023-09-19T00:19:39;15.30;99.90
36458;DHT22;22480;50.546;12.292;2023-09-19T00:22:05;15.30;99.90
36458;DHT22;22480;50.546;12.292;2023-09-19T00:24:30;15.40;99.90
36458;DHT22;22480;50.546;12.292;2023-09-19T00:26:56;15.40;99.90
36458;DHT22;22480;50.546;12.292;2023-09-19T00:29:25;15.50;99.90
36458;DHT22;22480;50.546;12.292;2023-09-19T00:31:55;15.50;99.90
36458;DHT22;22480;50.546;12.292;2023-09-19T00:34:21;15.50;99.90
36458;DHT22;22480;50.546;12.292;2023-09-19T00:36:47;15.60;99.90
36458;DHT22;22480;50.546;12.292;2023-09-19T00:39:13;15.60;99.90
36458;DHT22;22480;50.546;12.292;2023-09-19T00:41:39;15.60;99.90
36458;DHT22;22480;50.546;12.292;2023-09-19T00:44:06;15.60;99.90
36458;DHT22;22480;50.546;12.292;2023-09-19T00:46:32;15.50;99.90
36458;DHT22;22480;50.546;12.292;2023-09-19T00:48:58;15.50;99.90
36458;DHT22;22480;50.546;12.292;2023-09-19T00:51:25;15.50;99.90
36458;DHT22;22480;50.546;12.292;2023-09-19T00:53:53;15.40;99.90
36458;DHT22;22480;50.546;12.292;2023-09-19T00:56:20;15.40;99.90
36458;DHT22;22480;50.546;12.292;2023-09-19T00:58:46;15.30;99.90
36458;DHT22;22480;50.546;12.292;2023-09-19T01:01:16;15.40;99.90
36458;DHT22;22480;50.546;12.292;2023-09-19T01:03:42;15.40;99.90
36458;DHT22;22480;50.546;12.292;2023-09-19T01:06:09;15.40;99.90
36458;DHT22;22480;50.546;12.292;2023-09-19T01:08:35;15.40;99.90
36458;DHT22;22480;50.546;12.292;2023-09-19T01:11:12;15.40;99.90
36458;DHT22;22480;50.546;12.292;2023-09-19T01:13:58;15.40;99.90
36458;DHT22;22480;50.546;12.292;2023-09-19T01:16:53;15.40;99.90
36458;DHT22;22480;50.546;12.292;2023-09-19T01:19:55;15.40;99.90
36458;DHT22;22480;50.546;12.292;2023-09-19T01:22:48;15.30;99.90
36458;DHT22;22480;50.546;12.292;2023-09-19T01:27:53;15.20;99.90
36458;DHT22;22480;50.546;12.292;2023-09-19T01:30:26;15.20;99.90
36458;DHT22;22480;50.546;12.292;2023-09-19T01:32:54;15.20;99.90
36458;DHT22;22480;50.546;12.292;2023-09-19T01:35:20;15.10;99.90
36458;DHT22;22480;50.546;12.292;2023-09-19T01:37:46;15.10;99.90
36458;DHT22;22480;50.546;12.292;2023-09-19T01:40:17;15.10;99.90
36458;DHT22;22480;50.546;12.292;2023-09-19T01:47:54;15.10;99.90
36458;DHT22;22480;50.546;12.292;2023-09-19T01:51:06;15.10;99.90
36458;DHT22;22480;50.546;12.292;2023-09-19T01:53:25;15.00;99.90
36458;DHT22;22480;50.546;12.292;2023-09-19T01:55:54;14.90;99.90
36458;DHT22;22480;50.546;12.292;2023-09-19T02:01:01;14.90;99.90
36458;DHT22;22480;50.546;12.292;2023-09-19T02:03:31;14.80;99.90
36458;DHT22;22480;50.546;12.292;2023-09-19T02:05:57;14.80;99.90
36458;DHT22;22480;50.546;12.292;2023-09-19T02:08:23;14.80;99.90
36458;DHT22;22480;50.546;12.292;2023-09-19T02:10:52;14.90;99.90
36458;DHT22;22480;50.546;12.292;2023-09-19T02:13:20;15.10;99.90
36458;DHT22;22480;50.546;12.292;2023-09-19T02:15:46;15.10;99.90
36458;DHT22;22480;50.546;12.292;2023-09-19T02:18:15;15.20;99.90
36458;DHT22;22480;50.546;12.292;2023-09-19T02:20:41;15.30;99.90
36458;DHT22;22480;50.546;12.292;2023-09-19T02:23:09;15.50;99.90
36458;DHT22;22480;50.546;12.292;2023-09-19T02:25:35;15.50;99.90
36458;DHT22;22480;50.546;12.292;2023-09-19T02:28:01;15.50;99.90
36458;DHT22;22480;50.546;12.292;2023-09-19T02:30:28;15.50;99.90
36458;DHT22;22480;50.546;12.292;2023-09-19T02:32:55;15.60;99.90
36458;DHT22;22480;50.546;12.292;2023-09-19T02:35:21;15.50;99.90
36458;DHT22;22480;50.546;12.292;2023-09-19T02:37:48;15.50;99.90
36458;DHT22;22480;50.546;12.292;2023-09-19T02:40:14;15.40;99.90
36458;DHT22;22480;50.546;12.292;2023-09-19T02:42:55;15.30;99.90
36458;DHT22;22480;50.546;12.292;2023-09-19T02:45:22;15.20;99.90
36458;DHT22;22480;50.546;12.292;2023-09-19T02:47:49;15.10;99.90
36458;DHT22;22480;50.546;12.292;2023-09-19T02:50:16;15.10;99.90
36458;DHT22;22480;50.546;12.292;2023-09-19T02:52:42;15.00;99.90
36458;DHT22;22480;50.546;12.292;2023-09-19T02:55:10;14.90;99.90
36458;DHT22;22480;50.546;12.292;2023-09-19T02:57:36;14.80;99.90
36458;DHT22;22480;50.546;12.292;2023-09-19T03:00:09;14.70;99.90
36458;DHT22;22480;50.546;12.292;2023-09-19T03:02:38;14.70;99.90
36458;DHT22;22480;50.546;12.292;2023-09-19T03:05:07;14.70;99.90
36458;DHT22;22480;50.546;12.292;2023-09-19T03:07:33;14.60;99.90
36458;DHT22;22480;50.546;12.292;2023-09-19T03:09:59;14.50;99.90
36458;DHT22;22480;50.546;12.292;2023-09-19T03:12:26;14.40;99.90
36458;DHT22;22480;50.546;12.292;2023-09-19T03:14:52;14.40;99.90
36458;DHT22;22480;50.546;12.292;2023-09-19T03:17:18;14.40;99.90
36458;DHT22;22480;50.546;12.292;2023-09-19T03:19:45;14.40;99.90
36458;DHT22;22480;50.546;12.292;2023-09-19T03:22:13;14.50;99.90
36458;DHT22;22480;50.546;12.292;2023-09-19T03:24:39;14.40;99.90
36458;DHT22;22480;50.546;12.292;2023-09-19T03:27:05;14.40;99.90
36458;DHT22;22480;50.546;12.292;2023-09-19T03:29:31;14.40;99.90
36458;DHT22;22480;50.546;12.292;2023-09-19T03:31:58;14.50;99.90
36458;DHT22;22480;50.546;12.292;2023-09-19T03:34:24;14.50;99.90
36458;DHT22;22480;50.546;12.292;2023-09-19T03:36:49;14.60;99.90
36458;DHT22;22480;50.546;12.292;2023-09-19T03:39:16;14.70;99.90
36458;DHT22;22480;50.546;12.292;2023-09-19T03:41:42;14.70;99.90
36458;DHT22;22480;50.546;12.292;2023-09-19T03:44:08;14.80;99.90
36458;DHT22;22480;50.546;12.292;2023-09-19T03:46:34;14.80;99.90
36458;DHT22;22480;50.546;12.292;2023-09-19T03:49:01;14.90;99.90
36458;DHT22;22480;50.546;12.292;2023-09-19T03:51:27;15.00;99.90
36458;DHT22;22480;50.546;12.292;2023-09-19T03:53:52;15.00;99.90
36458;DHT22;22480;50.546;12.292;2023-09-19T03:56:18;15.10;99.90
36458;DHT22;22480;50.546;12.292;2023-09-19T03:58:45;15.20;99.90
36458;DHT22;22480;50.546;12.292;2023-09-19T04:01:10;15.20;99.90
36458;DHT22;22480;50.546;12.292;2023-09-19T04:03:38;15.20;99.90
36458;DHT22;22480;50.546;12.292;2023-09-19T04:06:14;15.20;99.90
36458;DHT22;22480;50.546;12.292;2023-09-19T04:08:40;15.30;99.90
36458;DHT22;22480;50.546;12.292;2023-09-19T04:11:06;15.30;99.90
36458;DHT22;22480;50.546;12.292;2023-09-19T04:13:32;15.30;99.90
36458;DHT22;22480;50.546;12.292;2023-09-19T04:15:58;15.40;99.90
36458;DHT22;22480;50.546;12.292;2023-09-19T04:18:23;15.40;99.90
36458;DHT22;22480;50.546;12.292;2023-09-19T04:20:50;15.40;99.90
36458;DHT22;22480;50.546;12.292;2023-09-19T04:23:16;15.40;99.90
36458;DHT22;22480;50.546;12.292;2023-09-19T04:25:43;15.40;99.90
36458;DHT22;22480;50.546;12.292;2023-09-19T04:28:09;15.40;99.90
36458;DHT22;22480;50.546;12.292;2023-09-19T04:30:37;15.40;99.90
36458;DHT22;22480;50.546;12.292;2023-09-19T04:33:03;15.40;99.90
36458;DHT22;22480;50.546;12.292;2023-09-19T04:35:29;15.40;99.90
36458;DHT22;22480;50.546;12.292;2023-09-19T04:37:57;15.40;99.90
36458;DHT22;22480;50.546;12.292;2023-09-19T04:40:23;15.40;99.90
36458;DHT22;22480;50.546;12.292;2023-09-19T04:42:58;15.30;99.90
36458;DHT22;22480;50.546;12.292;2023-09-19T04:45:26;15.20;99.90
36458;DHT22;22480;50.546;12.292;2023-09-19T04:47:52;15.10;99.90
36458;DHT22;22480;50.546;12.292;2023-09-19T04:50:19;14.90;99.90
36458;DHT22;22480;50.546;12.292;2023-09-19T04:52:49;14.90;99.90
36458;DHT22;22480;50.546;12.292;2023-09-19T04:55:17;14.90;99.90
36458;DHT22;22480;50.546;12.292;2023-09-19T04:57:44;14.80;99.90
36458;DHT22;22480;50.546;12.292;2023-09-19T05:00:12;14.80;99.90
36458;DHT22;22480;50.546;12.292;2023-09-19T05:02:43;14.70;99.90
36458;DHT22;22480;50.546;12.292;2023-09-19T05:05:09;14.60;99.90
36458;DHT22;22480;50.546;12.292;2023-09-19T05:07:36;14.60;99.90
36458;DHT22;22480;50.546;12.292;2023-09-19T05:10:03;14.60;99.90
36458;DHT22;22480;50.546;12.292;2023-09-19T05:12:34;14.70;99.90
36458;DHT22;22480;50.546;12.292;2023-09-19T05:15:00;14.70;99.90
36458;DHT22;22480;50.546;12.292;2023-09-19T05:17:27;14.80;99.90
36458;DHT22;22480;50.546;12.292;2023-09-19T05:19:53;14.90;99.90
36458;DHT22;22480;50.546;12.292;2023-09-19T05:22:18;14.90;99.90
36458;DHT22;22480;50.546;12.292;2023-09-19T05:24:44;15.00;99.90
36458;DHT22;22480;50.546;12.292;2023-09-19T05:27:14;15.10;99.90
36458;DHT22;22480;50.546;12.292;2023-09-19T05:29:45;15.10;99.90
36458;DHT22;22480;50.546;12.292;2023-09-19T05:32:11;15.20;99.90
36458;DHT22;22480;50.546;12.292;2023-09-19T05:34:37;15.10;99.90
36458;DHT22;22480;50.546;12.292;2023-09-19T05:37:04;15.10;99.90
36458;DHT22;22480;50.546;12.292;2023-09-19T05:39:33;15.10;99.90
36458;DHT22;22480;50.546;12.292;2023-09-19T05:41:59;15.10;99.90
36458;DHT22;22480;50.546;12.292;2023-09-19T05:44:26;15.20;99.90
36458;DHT22;22480;50.546;12.292;2023-09-19T05:46:51;15.20;99.90
36458;DHT22;22480;50.546;12.292;2023-09-19T05:49:17;15.30;99.90
36458;DHT22;22480;50.546;12.292;2023-09-19T05:51:43;15.40;99.90
36458;DHT22;22480;50.546;12.292;2023-09-19T05:54:09;15.70;99.90
36458;DHT22;22480;50.546;12.292;2023-09-19T05:56:36;15.80;99.90
36458;DHT22;22480;50.546;12.292;2023-09-19T05:59:02;15.80;99.90
36458;DHT22;22480;50.546;12.292;2023-09-19T06:01:29;15.70;99.90
36458;DHT22;22480;50.546;12.292;2023-09-19T06:03:58;15.60;99.90
36458;DHT22;22480;50.546;12.292;2023-09-19T06:06:25;15.50;99.90
36458;DHT22;22480;50.546;12.292;2023-09-19T06:08:51;15.50;99.90
36458;DHT22;22480;50.546;12.292;2023-09-19T06:11:17;15.50;99.90
36458;DHT22;22480;50.546;12.292;2023-09-19T06:13:46;15.60;99.90
36458;DHT22;22480;50.546;12.292;2023-09-19T06:16:13;15.70;99.90
36458;DHT22;22480;50.546;12.292;2023-09-19T06:18:38;15.90;99.90
36458;DHT22;22480;50.546;12.292;2023-09-19T06:21:05;16.10;99.90
36458;DHT22;22480;50.546;12.292;2023-09-19T06:23:34;16.10;99.90
36458;DHT22;22480;50.546;12.292;2023-09-19T06:26:00;16.10;99.90
36458;DHT22;22480;50.546;12.292;2023-09-19T06:28:26;16.80;99.90
36458;DHT22;22480;50.546;12.292;2023-09-19T06:30:54;17.30;99.90
36458;DHT22;22480;50.546;12.292;2023-09-19T06:33:19;17.60;99.90
36458;DHT22;22480;50.546;12.292;2023-09-19T06:35:47;18.00;99.90
36458;DHT22;22480;50.546;12.292;2023-09-19T06:38:13;18.30;99.90
36458;DHT22;22480;50.546;12.292;2023-09-19T06:40:41;18.40;99.90
36458;DHT22;22480;50.546;12.292;2023-09-19T06:43:10;18.50;99.90
36458;DHT22;22480;50.546;12.292;2023-09-19T06:45:36;18.40;99.90
36458;DHT22;22480;50.546;12.292;2023-09-19T06:48:02;18.60;99.90
36458;DHT22;22480;50.546;12.292;2023-09-19T06:50:29;18.60;99.90
36458;DHT22;22480;50.546;12.292;2023-09-19T06:52:58;18.90;99.90
36458;DHT22;22480;50.546;12.292;2023-09-19T06:55:25;19.00;99.90
36458;DHT22;22480;50.546;12.292;2023-09-19T06:57:53;19.10;99.90
36458;DHT22;22480;50.546;12.292;2023-09-19T07:00:22;19.10;99.90
36458;DHT22;22480;50.546;12.292;2023-09-19T07:03:02;19.20;99.90
36458;DHT22;22480;50.546;12.292;2023-09-19T07:05:29;19.40;99.90
36458;DHT22;22480;50.546;12.292;2023-09-19T07:07:56;19.30;99.90
36458;DHT22;22480;50.546;12.292;2023-09-19T07:10:22;18.90;99.90
36458;DHT22;22480;50.546;12.292;2023-09-19T07:13:00;18.60;99.90
36458;DHT22;22480;50.546;12.292;2023-09-19T07:15:26;18.10;99.90
36458;DHT22;22480;50.546;12.292;2023-09-19T07:17:52;17.70;99.90
36458;DHT22;22480;50.546;12.292;2023-09-19T07:20:19;17.60;99.90
36458;DHT22;22480;50.546;12.292;2023-09-19T07:22:45;17.60;99.90
36458;DHT22;22480;50.546;12.292;2023-09-19T07:25:12;17.50;99.90
36458;DHT22;22480;50.546;12.292;2023-09-19T07:27:43;17.30;99.90
36458;DHT22;22480;50.546;12.292;2023-09-19T07:30:10;17.20;99.90
36458;DHT22;22480;50.546;12.292;2023-09-19T07:32:37;17.10;99.90
36458;DHT22;22480;50.546;12.292;2023-09-19T07:35:04;17.30;99.90
36458;DHT22;22480;50.546;12.292;2023-09-19T07:37:34;17.40;99.90
36458;DHT22;22480;50.546;12.292;2023-09-19T07:40:02;17.60;99.90
36458;DHT22;22480;50.546;12.292;2023-09-19T07:42:36;17.60;99.90
36458;DHT22;22480;50.546;12.292;2023-09-19T07:45:04;17.70;99.90
36458;DHT22;22480;50.546;12.292;2023-09-19T07:47:30;18.10;99.90
36458;DHT22;22480;50.546;12.292;2023-09-19T07:49:58;18.30;99.90
36458;DHT22;22480;50.546;12.292;2023-09-19T07:52:24;18.40;99.90
36458;DHT22;22480;50.546;12.292;2023-09-19T07:54:50;18.30;99.90
36458;DHT22;22480;50.546;12.292;2023-09-19T07:57:16;17.90;99.90
36458;DHT22;22480;50.546;12.292;2023-09-19T07:59:42;17.90;99.90
36458;DHT22;22480;50.546;12.292;2023-09-19T08:02:09;17.80;99.90
36458;DHT22;22480;50.546;12.292;2023-09-19T08:04:42;17.90;99.90
36458;DHT22;22480;50.546;12.292;2023-09-19T08:07:08;18.10;99.90
36458;DHT22;22480;50.546;12.292;2023-09-19T08:09:34;18.20;99.90
36458;DHT22;22480;50.546;12.292;2023-09-19T08:12:00;18.30;99.90
36458;DHT22;22480;50.546;12.292;2023-09-19T08:14:28;18.20;99.90
36458;DHT22;22480;50.546;12.292;2023-09-19T08:16:58;18.00;99.90
36458;DHT22;22480;50.546;12.292;2023-09-19T08:19:24;17.90;99.90
36458;DHT22;22480;50.546;12.292;2023-09-19T08:21:57;18.20;99.90
36458;DHT22;22480;50.546;12.292;2023-09-19T08:24:30;18.50;99.90
36458;DHT22;22480;50.546;12.292;2023-09-19T08:26:57;19.00;99.90
36458;DHT22;22480;50.546;12.292;2023-09-19T08:29:24;19.10;99.90
36458;DHT22;22480;50.546;12.292;2023-09-19T08:31:54;19.10;99.90
36458;DHT22;22480;50.546;12.292;2023-09-19T08:34:20;19.10;99.90
36458;DHT22;22480;50.546;12.292;2023-09-19T08:36:47;19.10;99.90
36458;DHT22;22480;50.546;12.292;2023-09-19T08:39:13;18.90;99.90
36458;DHT22;22480;50.546;12.292;2023-09-19T08:41:39;18.90;99.90
36458;DHT22;22480;50.546;12.292;2023-09-19T08:44:05;18.90;99.90
36458;DHT22;22480;50.546;12.292;2023-09-19T08:46:34;18.80;99.90
36458;DHT22;22480;50.546;12.292;2023-09-19T08:49:05;18.70;99.90
36458;DHT22;22480;50.546;12.292;2023-09-19T08:51:43;18.30;99.90
36458;DHT22;22480;50.546;12.292;2023-09-19T08:54:27;18.20;99.90
36458;DHT22;22480;50.546;12.292;2023-09-19T08:56:55;18.70;99.90
36458;DHT22;22480;50.546;12.292;2023-09-19T08:59:23;19.20;99.90
36458;DHT22;22480;50.546;12.292;2023-09-19T09:01:56;19.40;99.90
36458;DHT22;22480;50.546;12.292;2023-09-19T09:04:23;19.10;99.90
36458;DHT22;22480;50.546;12.292;2023-09-19T09:06:50;18.50;99.90
36458;DHT22;22480;50.546;12.292;2023-09-19T09:09:20;18.30;99.90
36458;DHT22;22480;50.546;12.292;2023-09-19T09:11:45;18.60;99.90
36458;DHT22;22480;50.546;12.292;2023-09-19T09:14:13;19.10;99.90
36458;DHT22;22480;50.546;12.292;2023-09-19T09:16:39;18.70;99.90
36458;DHT22;22480;50.546;12.292;2023-09-19T09:19:05;18.40;99.90
36458;DHT22;22480;50.546;12.292;2023-09-19T09:21:31;18.10;99.90
36458;DHT22;22480;50.546;12.292;2023-09-19T09:24:50;18.20;99.90
36458;DHT22;22480;50.546;12.292;2023-09-19T09:26:50;18.70;99.90
36458;DHT22;22480;50.546;12.292;2023-09-19T09:29:16;19.50;99.90
36458;DHT22;22480;50.546;12.292;2023-09-19T09:31:42;20.30;97.70
36458;DHT22;22480;50.546;12.292;2023-09-19T09:34:09;20.20;99.90
36458;DHT22;22480;50.546;12.292;2023-09-19T09:36:36;20.00;99.90
36458;DHT22;22480;50.546;12.292;2023-09-19T09:39:03;20.20;97.40
36458;DHT22;22480;50.546;12.292;2023-09-19T09:41:50;20.60;93.80
36458;DHT22;22480;50.546;12.292;2023-09-19T09:44:17;21.00;89.90
36458;DHT22;22480;50.546;12.292;2023-09-19T09:46:47;20.30;93.10
36458;DHT22;22480;50.546;12.292;2023-09-19T09:49:23;20.00;99.90
36458;DHT22;22480;50.546;12.292;2023-09-19T09:52:05;20.60;93.70
36458;DHT22;22480;50.546;12.292;2023-09-19T09:54:34;20.90;90.00
36458;DHT22;22480;50.546;12.292;2023-09-19T09:57:08;20.40;90.80
36458;DHT22;22480;50.546;12.292;2023-09-19T09:59:51;20.30;95.00
36458;DHT22;22480;50.546;12.292;2023-09-19T10:02:35;20.50;93.10
36458;DHT22;22480;50.546;12.292;2023-09-19T10:05:13;20.50;95.60
36458;DHT22;22480;50.546;12.292;2023-09-19T10:07:39;20.70;90.90
36458;DHT22;22480;50.546;12.292;2023-09-19T10:10:08;20.80;89.10
36458;DHT22;22480;50.546;12.292;2023-09-19T10:12:48;21.10;82.40
36458;DHT22;22480;50.546;12.292;2023-09-19T10:15:18;21.00;82.80
36458;DHT22;22480;50.546;12.292;2023-09-19T10:17:52;20.80;80.50
36458;DHT22;22480;50.546;12.292;2023-09-19T10:20:24;20.40;80.30
36458;DHT22;22480;50.546;12.292;2023-09-19T10:23:07;19.90;83.80
36458;DHT22;22480;50.546;12.292;2023-09-19T10:25:44;19.40;85.30
36458;DHT22;22480;50.546;12.292;2023-09-19T10:28:16;19.20;92.00
36458;DHT22;22480;50.546;12.292;2023-09-19T10:33:22;19.30;92.00
36458;DHT22;22480;50.546;12.292;2023-09-19T10:35:51;19.40;92.00
36458;DHT22;22480;50.546;12.292;2023-09-19T10:38:18;19.40;93.20
36458;DHT22;22480;50.546;12.292;2023-09-19T10:40:49;19.50;92.80
36458;DHT22;22480;50.546;12.292;2023-09-19T10:43:17;19.40;93.10
36458;DHT22;22480;50.546;12.292;2023-09-19T10:45:45;19.60;95.00
36458;DHT22;22480;50.546;12.292;2023-09-19T10:48:12;20.10;97.20
36458;DHT22;22480;50.546;12.292;2023-09-19T10:50:50;20.70;90.60
36458;DHT22;22480;50.546;12.292;2023-09-19T10:53:17;20.90;88.80
36458;DHT22;22480;50.546;12.292;2023-09-19T10:56:00;20.80;87.40
36458;DHT22;22480;50.546;12.292;2023-09-19T10:58:31;20.60;85.40
36458;DHT22;22480;50.546;12.292;2023-09-19T11:01:02;20.50;90.20
36458;DHT22;22480;50.546;12.292;2023-09-19T11:03:31;20.40;90.00
36458;DHT22;22480;50.546;12.292;2023-09-19T11:06:16;19.90;85.10
36458;DHT22;22480;50.546;12.292;2023-09-19T11:08:57;19.40;87.00
36458;DHT22;22480;50.546;12.292;2023-09-19T11:11:39;19.20;87.70
36458;DHT22;22480;50.546;12.292;2023-09-19T11:17:33;19.70;90.60
36458;DHT22;22480;50.546;12.292;2023-09-19T11:28:28;21.20;73.60
36458;DHT22;22480;50.546;12.292;2023-09-19T11:30:56;21.00;74.80
36458;DHT22;22480;50.546;12.292;2023-09-19T11:33:32;20.60;74.10
36458;DHT22;22480;50.546;12.292;2023-09-19T11:36:17;20.10;77.50
36458;DHT22;22480;50.546;12.292;2023-09-19T11:43:51;20.10;81.30
36458;DHT22;22480;50.546;12.292;2023-09-19T11:46:18;20.50;80.40
36458;DHT22;22480;50.546;12.292;2023-09-19T11:48:50;20.90;79.60
36458;DHT22;22480;50.546;12.292;2023-09-19T11:51:24;21.20;78.70
36458;DHT22;22480;50.546;12.292;2023-09-19T11:53:58;21.20;77.60
36458;DHT22;22480;50.546;12.292;2023-09-19T11:56:29;20.70;79.10
36458;DHT22;22480;50.546;12.292;2023-09-19T11:58:57;20.40;80.30
36458;DHT22;22480;50.546;12.292;2023-09-19T12:01:33;20.40;80.80
36458;DHT22;22480;50.546;12.292;2023-09-19T12:04:02;21.00;80.50
36458;DHT22;22480;50.546;12.292;2023-09-19T12:06:30;21.90;76.90
36458;DHT22;22480;50.546;12.292;2023-09-19T12:08:58;22.10;75.80
36458;DHT22;22480;50.546;12.292;2023-09-19T12:11:29;21.50;72.10
36458;DHT22;22480;50.546;12.292;2023-09-19T12:13:59;21.00;73.70
36458;DHT22;22480;50.546;12.292;2023-09-19T12:16:26;21.30;74.10
36458;DHT22;22480;50.546;12.292;2023-09-19T12:18:56;21.80;73.50
36458;DHT22;22480;50.546;12.292;2023-09-19T12:21:28;22.00;70.80
36458;DHT22;22480;50.546;12.292;2023-09-19T12:23:58;22.40;69.80
36458;DHT22;22480;50.546;12.292;2023-09-19T12:26:26;22.70;70.60
36458;DHT22;22480;50.546;12.292;2023-09-19T12:28:54;23.00;67.50
36458;DHT22;22480;50.546;12.292;2023-09-19T12:31:21;22.80;67.80
36458;DHT22;22480;50.546;12.292;2023-09-19T12:33:56;22.80;68.90
36458;DHT22;22480;50.546;12.292;2023-09-19T12:36:23;22.70;69.30
36458;DHT22;22480;50.546;12.292;2023-09-19T12:38:58;22.90;67.60
36458;DHT22;22480;50.546;12.292;2023-09-19T12:41:25;23.50;66.60
36458;DHT22;22480;50.546;12.292;2023-09-19T12:43:53;24.00;66.50
36458;DHT22;22480;50.546;12.292;2023-09-19T12:46:23;24.10;63.30
36458;DHT22;22480;50.546;12.292;2023-09-19T12:49:19;23.70;64.00
36458;DHT22;22480;50.546;12.292;2023-09-19T12:51:48;23.40;62.10
36458;DHT22;22480;50.546;12.292;2023-09-19T12:54:15;23.10;61.50
36458;DHT22;22480;50.546;12.292;2023-09-19T12:56:45;22.80;63.80
36458;DHT22;22480;50.546;12.292;2023-09-19T12:59:15;22.60;63.90
36458;DHT22;22480;50.546;12.292;2023-09-19T13:01:42;22.30;65.90
36458;DHT22;22480;50.546;12.292;2023-09-19T13:04:19;22.70;65.80
36458;DHT22;22480;50.546;12.292;2023-09-19T13:06:46;23.20;62.60
36458;DHT22;22480;50.546;12.292;2023-09-19T13:09:15;23.60;60.20
36458;DHT22;22480;50.546;12.292;2023-09-19T13:11:41;23.80;60.00
36458;DHT22;22480;50.546;12.292;2023-09-19T13:14:23;23.10;58.30
36458;DHT22;22480;50.546;12.292;2023-09-19T13:17:08;22.90;59.50
36458;DHT22;22480;50.546;12.292;2023-09-19T13:19:46;22.30;59.40
36458;DHT22;22480;50.546;12.292;2023-09-19T13:25:14;22.40;60.80
36458;DHT22;22480;50.546;12.292;2023-09-19T13:27:44;22.60;59.80
36458;DHT22;22480;50.546;12.292;2023-09-19T13:30:14;23.00;60.60
36458;DHT22;22480;50.546;12.292;2023-09-19T13:32:40;22.70;58.50
36458;DHT22;22480;50.546;12.292;2023-09-19T13:35:08;22.40;58.80
36458;DHT22;22480;50.546;12.292;2023-09-19T13:37:41;22.30;57.80
36458;DHT22;22480;50.546;12.292;2023-09-19T13:40:11;22.10;59.10
36458;DHT22;22480;50.546;12.292;2023-09-19T13:42:37;22.00;59.10
36458;DHT22;22480;50.546;12.292;2023-09-19T13:45:04;21.70;59.20
36458;DHT22;22480;50.546;12.292;2023-09-19T13:47:30;21.70;59.50
36458;DHT22;22480;50.546;12.292;2023-09-19T13:49:56;21.90;59.70
36458;DHT22;22480;50.546;12.292;2023-09-19T13:52:22;22.20;58.20
36458;DHT22;22480;50.546;12.292;2023-09-19T13:54:51;22.40;56.70
36458;DHT22;22480;50.546;12.292;2023-09-19T13:57:18;22.30;56.80
36458;DHT22;22480;50.546;12.292;2023-09-19T13:59:44;22.30;56.60
36458;DHT22;22480;50.546;12.292;2023-09-19T14:02:10;22.30;57.70
36458;DHT22;22480;50.546;12.292;2023-09-19T14:04:35;22.50;57.40
36458;DHT22;22480;50.546;12.292;2023-09-19T14:07:02;22.20;55.10
36458;DHT22;22480;50.546;12.292;2023-09-19T14:09:27;22.10;55.40
36458;DHT22;22480;50.546;12.292;2023-09-19T14:11:53;21.80;55.00
36458;DHT22;22480;50.546;12.292;2023-09-19T14:14:19;21.80;56.10
36458;DHT22;22480;50.546;12.292;2023-09-19T14:16:49;21.80;57.30
36458;DHT22;22480;50.546;12.292;2023-09-19T14:19:15;21.90;56.80
36458;DHT22;22480;50.546;12.292;2023-09-19T14:21:42;22.10;55.90
36458;DHT22;22480;50.546;12.292;2023-09-19T14:24:08;22.00;56.20
36458;DHT22;22480;50.546;12.292;2023-09-19T14:26:35;22.00;56.90
36458;DHT22;22480;50.546;12.292;2023-09-19T14:29:01;22.30;56.30
36458;DHT22;22480;50.546;12.292;2023-09-19T14:31:27;22.10;55.10
36458;DHT22;22480;50.546;12.292;2023-09-19T14:33:57;22.10;55.20
36458;DHT22;22480;50.546;12.292;2023-09-19T14:36:23;21.90;55.20
36458;DHT22;22480;50.546;12.292;2023-09-19T14:38:52;21.70;54.70
36458;DHT22;22480;50.546;12.292;2023-09-19T14:41:23;21.40;56.80
36458;DHT22;22480;50.546;12.292;2023-09-19T14:43:54;21.20;56.80
36458;DHT22;22480;50.546;12.292;2023-09-19T14:46:21;21.10;57.10
36458;DHT22;22480;50.546;12.292;2023-09-19T14:48:48;21.00;57.40
36458;DHT22;22480;50.546;12.292;2023-09-19T14:51:14;21.00;57.90
36458;DHT22;22480;50.546;12.292;2023-09-19T14:53:42;21.20;57.60
36458;DHT22;22480;50.546;12.292;2023-09-19T14:56:09;21.20;59.10
36458;DHT22;22480;50.546;12.292;2023-09-19T14:58:35;21.20;58.90
36458;DHT22;22480;50.546;12.292;2023-09-19T15:01:11;21.30;59.00
36458;DHT22;22480;50.546;12.292;2023-09-19T15:03:38;21.30;59.20
36458;DHT22;22480;50.546;12.292;2023-09-19T15:06:09;21.30;58.70
36458;DHT22;22480;50.546;12.292;2023-09-19T15:08:36;21.30;57.40
36458;DHT22;22480;50.546;12.292;2023-09-19T15:11:04;21.10;58.20
36458;DHT22;22480;50.546;12.292;2023-09-19T15:13:34;21.00;60.40
36458;DHT22;22480;50.546;12.292;2023-09-19T15:16:01;21.10;59.50
36458;DHT22;22480;50.546;12.292;2023-09-19T15:18:28;21.20;60.00
36458;DHT22;22480;50.546;12.292;2023-09-19T15:20:55;21.00;59.40
36458;DHT22;22480;50.546;12.292;2023-09-19T15:23:21;20.90;60.20
36458;DHT22;22480;50.546;12.292;2023-09-19T15:25:50;20.90;61.00
36458;DHT22;22480;50.546;12.292;2023-09-19T15:28:16;21.00;61.70
36458;DHT22;22480;50.546;12.292;2023-09-19T15:30:42;21.00;61.30
36458;DHT22;22480;50.546;12.292;2023-09-19T15:33:08;20.70;63.10
36458;DHT22;22480;50.546;12.292;2023-09-19T15:35:33;20.30;63.40
36458;DHT22;22480;50.546;12.292;2023-09-19T15:38:03;20.10;64.60
36458;DHT22;22480;50.546;12.292;2023-09-19T15:40:29;20.10;64.80
36458;DHT22;22480;50.546;12.292;2023-09-19T15:42:55;20.30;65.00
36458;DHT22;22480;50.546;12.292;2023-09-19T15:45:23;20.30;64.40
36458;DHT22;22480;50.546;12.292;2023-09-19T15:47:51;20.50;63.80
36458;DHT22;22480;50.546;12.292;2023-09-19T15:50:17;20.50;63.20
36458;DHT22;22480;50.546;12.292;2023-09-19T15:52:44;20.50;63.90
36458;DHT22;22480;50.546;12.292;2023-09-19T15:55:10;20.40;65.00
36458;DHT22;22480;50.546;12.292;2023-09-19T15:57:37;20.30;66.30